Time;durP1;ratioP1;P1;durP2;ratioP2;P2;SDS_P1;SDS_P2;PMS_P1;PMS_P2;Temp;Humidity;BMP_temperature;BMP_pressure;BME280_temperature;BME280_humidity;BME280_pressure;Samples;Min_cycle;Max_cycle;Signal;HPM_P1;HPM_P2
2022/06/02 00:02:32;;;;;;;2.03;1.83;;;;;;;15.35;50.49;97372.88;4969642;28;20198;-77
2022/06/02 00:05:28;;;;;;;3.05;2.25;;;;;;;15.24;50.63;97373.97;4964390;28;20850;-77
2022/06/02 00:08:34;;;;;;;2.65;1.92;;;;;;;15.08;50.85;97379.28;4960984;28;20195;-77
2022/06/02 00:11:18;;;;;;;2.33;1.95;;;;;;;15.01;51.34;97386.66;4933931;28;20206;-77
2022/06/02 00:13:59;;;;;;;3.13;1.90;;;;;;;14.91;51.38;97384.84;4965408;28;20688;-77
2022/06/02 00:16:33;;;;;;;3.25;2.20;;;;;;;14.87;51.57;97385.63;4960137;28;20295;-78
2022/06/02 00:19:28;;;;;;;2.70;2.50;;;;;;;14.86;51.78;97381.47;4966181;28;20207;-78
2022/06/02 00:21:58;;;;;;;3.05;2.28;;;;;;;14.74;52.11;97387.78;4968984;28;20468;-77
2022/06/02 00:24:27;;;;;;;2.53;2.00;;;;;;;14.78;51.91;97396.66;4968335;28;20198;-78
2022/06/02 00:27:09;;;;;;;2.20;2.00;;;;;;;14.54;52.63;97396.41;4967063;28;20703;-78
2022/06/02 00:29:46;;;;;;;3.50;2.13;;;;;;;14.50;52.48;97403.25;4962713;28;20293;-77
2022/06/02 00:32:35;;;;;;;2.78;2.10;;;;;;;14.23;53.54;97401.66;4966666;28;20191;-78
2022/06/02 00:35:00;;;;;;;2.88;2.40;;;;;;;14.48;52.88;97409.78;4968917;28;20320;-77
2022/06/02 00:37:44;;;;;;;3.25;2.42;;;;;;;14.41;52.66;97407.41;4967765;28;20309;-78
2022/06/02 00:40:11;;;;;;;3.88;2.20;;;;;;;14.30;53.06;97401.41;4964607;28;20258;-77
2022/06/02 00:43:10;;;;;;;2.63;2.13;;;;;;;14.03;53.72;97412.94;4965869;28;20195;-78
2022/06/02 00:45:40;;;;;;;6.40;3.97;;;;;;;14.11;53.21;97408.22;4975113;28;20200;-78
2022/06/02 00:48:14;;;;;;;3.22;2.50;;;;;;;13.99;53.32;97404.00;4969657;28;20144;-77
2022/06/02 00:50:45;;;;;;;3.25;2.33;;;;;;;14.06;53.65;97419.47;4964180;28;20239;-78
2022/06/02 00:53:23;;;;;;;4.95;2.83;;;;;;;13.80;53.98;97421.28;4964918;28;20187;-78
2022/06/02 00:59:05;;;;;;;3.45;3.03;;;;;;;13.86;53.87;97420.22;4967469;28;20667;-77
2022/06/02 01:01:33;;;;;;;6.55;2.88;;;;;;;13.87;54.01;97432.28;4932376;28;20192;-78
2022/06/02 01:04:01;;;;;;;3.08;2.75;;;;;;;13.89;54.30;97422.31;4963980;28;20265;-78
2022/06/02 01:06:43;;;;;;;3.88;2.70;;;;;;;13.73;54.51;97420.75;4956239;28;20281;-77
2022/06/02 01:09:30;;;;;;;2.33;2.00;;;;;;;13.72;54.73;97425.16;4944600;28;20249;-78
2022/06/02 01:12:12;;;;;;;2.85;2.30;;;;;;;13.57;54.85;97423.31;4974473;28;20198;-78
2022/06/02 01:15:11;;;;;;;4.28;2.78;;;;;;;13.42;55.63;97428.50;4949731;28;20303;-78
2022/06/02 01:17:42;;;;;;;2.95;2.65;;;;;;;13.50;55.45;97430.59;4923565;28;20357;-77
2022/06/02 01:20:20;;;;;;;2.88;2.22;;;;;;;13.44;55.49;97429.03;4963063;28;20303;-77
2022/06/02 01:23:16;;;;;;;3.25;2.42;;;;;;;13.34;55.96;97432.38;4967631;28;20180;-78
2022/06/02 01:26:08;;;;;;;3.65;2.75;;;;;;;13.26;56.27;97423.16;4967682;28;20661;-77
2022/06/02 01:28:53;;;;;;;3.25;2.17;;;;;;;13.48;55.54;97423.00;4926644;28;20262;-77
2022/06/02 01:31:53;;;;;;;3.70;2.35;;;;;;;13.35;55.70;97420.06;4971965;28;20277;-78
2022/06/02 01:34:28;;;;;;;2.92;2.58;;;;;;;13.33;55.88;97424.78;4955676;28;20206;-78
2022/06/02 01:37:15;;;;;;;2.55;2.35;;;;;;;13.29;56.11;97429.72;4961218;28;20198;-78
2022/06/02 01:39:51;;;;;;;2.83;2.53;;;;;;;13.35;55.73;97428.72;4967749;28;20245;-78
2022/06/02 01:42:45;;;;;;;3.65;2.97;;;;;;;13.14;56.08;97425.19;4965136;28;20332;-77
2022/06/02 01:45:16;;;;;;;3.03;2.45;;;;;;;13.16;56.58;97430.97;4965206;28;20762;-78
2022/06/02 01:47:43;;;;;;;2.70;2.50;;;;;;;13.21;56.12;97428.38;4965116;28;20195;-78
2022/06/02 01:50:37;;;;;;;2.83;2.42;;;;;;;13.03;56.60;97431.41;4965707;28;20364;-78
2022/06/02 01:53:05;;;;;;;3.45;2.53;;;;;;;13.15;55.86;97433.84;4967401;28;20677;-77
2022/06/02 01:55:47;;;;;;;3.03;2.72;;;;;;;12.99;56.80;97438.19;4973422;28;20253;-78
2022/06/02 01:58:15;;;;;;;3.67;2.80;;;;;;;13.18;56.24;97436.72;4966031;28;20318;-78
2022/06/02 02:00:43;;;;;;;4.65;2.83;;;;;;;13.13;56.14;97439.31;4964595;28;20765;-78
2022/06/02 02:03:17;;;;;;;3.28;2.92;;;;;;;13.04;56.49;97440.81;4965135;28;20171;-78
2022/06/02 02:05:42;;;;;;;2.70;2.50;;;;;;;13.20;56.36;97447.72;4962810;28;20728;-78
2022/06/02 02:08:35;;;;;;;3.17;2.88;;;;;;;13.07;56.33;97435.91;4967479;28;20316;-78
2022/06/02 02:11:20;;;;;;;3.88;3.05;;;;;;;13.02;56.76;97435.06;4946039;28;20644;-78
2022/06/02 02:14:07;;;;;;;3.72;2.85;;;;;;;13.03;56.42;97440.03;4948604;28;20210;-78
2022/06/02 02:16:45;;;;;;;3.67;2.72;;;;;;;13.11;56.04;97444.78;4966547;28;20703;-78
2022/06/02 02:19:42;;;;;;;3.70;2.42;;;;;;;13.01;56.33;97438.72;4961461;28;20266;-78
2022/06/02 02:22:22;;;;;;;4.03;2.65;;;;;;;13.13;56.20;97443.75;4965096;28;20160;-78
2022/06/02 02:25:08;;;;;;;3.97;2.60;;;;;;;13.02;55.46;97435.06;4965169;28;20371;-78
2022/06/02 02:28:03;;;;;;;3.70;2.72;;;;;;;12.90;55.78;97440.47;4934680;28;20747;-77
2022/06/02 02:30:35;;;;;;;3.15;2.80;;;;;;;12.84;55.90;97447.50;4947038;28;20728;-78
2022/06/02 02:33:23;;;;;;;3.05;2.72;;;;;;;12.74;56.76;97448.22;4978230;28;20167;-78
2022/06/02 02:36:11;;;;;;;2.97;2.53;;;;;;;12.70;56.72;97446.38;4951808;28;20191;-78
2022/06/02 02:39:03;;;;;;;3.70;3.38;;;;;;;12.67;56.75;97452.09;4960690;28;20590;-77
2022/06/02 02:41:41;;;;;;;3.72;2.70;;;;;;;12.59;57.03;97447.34;4962078;28;20297;-78
2022/06/02 02:44:14;;;;;;;4.70;2.92;;;;;;;12.54;56.56;97451.50;4954794;28;20282;-78
2022/06/02 02:47:07;;;;;;;3.10;2.75;;;;;;;12.49;56.45;97454.06;4954295;28;20328;-78
2022/06/02 02:49:43;;;;;;;4.93;3.00;;;;;;;12.56;56.50;97451.25;4963718;28;20222;-77
2022/06/02 02:52:34;;;;;;;3.28;2.97;;;;;;;12.46;57.20;97448.56;4946411;28;20195;-77
2022/06/02 02:55:02;;;;;;;4.07;3.67;;;;;;;12.50;56.27;97444.41;4935267;28;20759;-78
2022/06/02 02:57:37;;;;;;;3.38;3.08;;;;;;;12.38;57.05;97449.00;4961903;28;20248;-77
2022/06/02 03:00:13;;;;;;;3.05;2.85;;;;;;;12.38;57.24;97449.78;4946336;28;20212;-78
2022/06/02 03:03:05;;;;;;;3.55;3.15;;;;;;;12.35;57.12;97456.31;4962922;28;20298;-78
2022/06/02 03:05:46;;;;;;;4.18;3.53;;;;;;;12.32;57.07;97450.75;4962268;28;20096;-78
2022/06/02 03:08:22;;;;;;;3.92;3.25;;;;;;;12.28;57.60;97454.91;4962841;28;20264;-77
2022/06/02 03:10:55;;;;;;;3.63;3.33;;;;;;;12.24;57.57;97453.84;4948981;28;20282;-77
2022/06/02 03:13:46;;;;;;;3.55;3.25;;;;;;;12.30;57.81;97456.25;4964025;28;20207;-77
2022/06/02 03:16:12;;;;;;;4.70;3.40;;;;;;;12.22;58.13;97448.88;4964262;28;20315;-78
2022/06/02 03:18:54;;;;;;;5.82;3.63;;;;;;;12.07;58.78;97453.97;4963879;28;20187;-78
2022/06/02 03:21:27;;;;;;;4.05;3.65;;;;;;;12.05;58.51;97454.19;4947571;28;20206;-78
2022/06/02 03:24:02;;;;;;;4.32;3.88;;;;;;;12.24;58.35;97456.47;4964146;28;20277;-77
2022/06/02 03:26:44;;;;;;;5.63;3.88;;;;;;;12.08;58.66;97451.09;4964276;28;20679;-78
2022/06/02 03:29:42;;;;;;;4.25;3.50;;;;;;;12.05;58.54;97456.03;4968346;28;20254;-78
2022/06/02 03:32:52;;;;;;;5.03;3.58;;;;;;;12.02;58.75;97457.28;4969459;28;20253;-78
2022/06/02 03:35:26;;;;;;;4.25;3.25;;;;;;;12.16;57.80;97458.47;4964982;28;20198;-78
2022/06/02 03:38:40;;;;;;;3.75;2.90;;;;;;;11.98;58.12;97457.00;4971179;28;20790;-78
2022/06/02 03:41:22;;;;;;;5.03;3.40;;;;;;;12.04;58.33;97457.06;4959038;28;20309;-78
2022/06/02 03:43:51;;;;;;;4.60;3.15;;;;;;;12.14;58.33;97460.53;4967174;28;20253;-77
2022/06/02 03:46:29;;;;;;;6.25;3.70;;;;;;;12.06;57.94;97463.59;4950899;28;20677;-77
2022/06/02 03:49:09;;;;;;;6.40;4.05;;;;;;;11.93;58.26;97461.41;4967665;28;20723;-78
2022/06/02 03:51:44;;;;;;;3.70;3.40;;;;;;;11.97;58.50;97457.25;4967633;28;20685;-78
2022/06/02 03:54:15;;;;;;;;;;;;;;;11.86;58.17;97468.56;4967948;28;20282;-78
2022/06/02 03:56:41;;;;;;;3.65;3.22;;;;;;;12.10;57.63;97467.31;4967279;28;20149;-77
2022/06/02 03:59:16;;;;;;;5.40;3.65;;;;;;;11.82;58.24;97463.06;4969361;28;20211;-77
2022/06/02 04:01:46;;;;;;;3.95;3.40;;;;;;;11.89;57.73;97473.31;4968795;28;20156;-77
2022/06/02 04:04:16;;;;;;;3.10;2.80;;;;;;;12.04;57.02;97470.88;4950810;28;20203;-77
2022/06/02 04:06:44;;;;;;;4.63;3.08;;;;;;;12.06;57.56;97473.25;4968145;28;20195;-77
2022/06/02 04:09:25;;;;;;;4.15;2.97;;;;;;;11.94;57.73;97463.75;4967988;28;20679;-77
2022/06/02 04:15:41;;;;;;;4.18;3.15;;;;;;;12.00;57.92;97477.63;4967590;28;20256;-78
2022/06/02 04:18:35;;;;;;;3.38;3.05;;;;;;;12.09;57.76;97473.53;4967261;28;20195;-78
2022/06/02 04:21:11;;;;;;;4.15;3.28;;;;;;;12.14;58.04;97481.41;4967141;28;20293;-77
2022/06/02 04:23:44;;;;;;;4.15;3.20;;;;;;;12.25;57.51;97477.09;4934168;28;20589;-78
2022/06/02 04:26:19;;;;;;;4.20;3.47;;;;;;;12.30;58.93;97481.56;4967920;28;20199;-77
2022/06/02 04:28:56;;;;;;;4.78;3.30;;;;;;;12.46;57.42;97483.28;4949623;28;20274;-78
2022/06/02 04:31:44;;;;;;;4.13;3.20;;;;;;;12.50;57.78;97478.34;4956979;28;20203;-77
2022/06/02 04:34:34;;;;;;;3.60;3.25;;;;;;;12.61;58.11;97479.22;4973367;28;20606;-77
2022/06/02 04:37:42;;;;;;;3.60;2.97;;;;;;;12.64;58.26;97482.09;4968211;28;20272;-77
2022/06/02 04:40:46;;;;;;;3.75;3.45;;;;;;;12.78;57.51;97479.84;4961641;28;20227;-77
2022/06/02 04:43:49;;;;;;;3.85;3.35;;;;;;;13.02;57.42;97476.88;4966735;28;20184;-77
2022/06/02 04:46:36;;;;;;;4.05;3.38;;;;;;;13.05;56.58;97481.63;4909624;28;20205;-77
2022/06/02 04:49:12;;;;;;;4.00;3.58;;;;;;;13.21;56.19;97480.66;4909072;28;20339;-77
2022/06/02 04:51:48;;;;;;;3.63;3.33;;;;;;;13.29;56.29;97490.63;4925094;28;20206;-77
2022/06/02 04:54:23;;;;;;;4.65;3.60;;;;;;;13.56;55.79;97489.75;4900070;28;20727;-77
2022/06/02 04:56:59;;;;;;;5.15;3.53;;;;;;;13.40;56.26;97493.31;4908965;28;20281;-77
2022/06/02 04:59:26;;;;;;;4.25;3.50;;;;;;;13.58;55.46;97497.34;4927911;28;20474;-77
2022/06/02 05:01:54;;;;;;;3.80;3.40;;;;;;;13.59;55.02;97493.66;4927490;28;20673;-77
2022/06/02 05:04:24;;;;;;;4.25;3.40;;;;;;;13.60;54.94;97495.25;4920728;28;20191;-77
2022/06/02 05:06:50;;;;;;;4.97;3.67;;;;;;;13.79;54.54;97498.97;4924279;28;20220;-77
2022/06/02 05:09:22;;;;;;;5.40;3.90;;;;;;;13.77;54.67;97495.84;4907956;28;20299;-77
2022/06/02 05:12:14;;;;;;;4.50;3.80;;;;;;;13.83;55.27;97494.03;4928091;28;20268;-77
2022/06/02 05:14:45;;;;;;;3.67;3.03;;;;;;;14.02;55.16;97494.34;4908290;28;20206;-77
2022/06/02 05:17:41;;;;;;;4.05;3.63;;;;;;;14.03;54.34;97503.75;4930335;28;20236;-77
2022/06/02 05:20:18;;;;;;;;;;;;;;;14.00;54.91;97505.09;4939395;28;20466;-77
2022/06/02 05:23:15;;;;;;;4.45;3.78;;;;;;;14.26;53.93;97514.81;4966661;28;20216;-78
2022/06/02 05:26:06;;;;;;;4.95;4.45;;;;;;;14.35;53.78;97508.03;4948888;28;20179;-77
2022/06/02 05:28:58;;;;;;;4.50;4.10;;;;;;;14.46;54.12;97503.59;4973003;28;20724;-77
2022/06/02 05:31:42;;;;;;;5.32;4.65;;;;;;;14.48;53.82;97509.34;4966292;28;20265;-76
2022/06/02 05:34:28;;;;;;;4.78;4.07;;;;;;;14.66;53.31;97506.25;4966261;28;20773;-76
2022/06/02 05:37:15;;;;;;;5.68;4.20;;;;;;;14.94;52.70;97517.22;4965016;28;20285;-76
2022/06/02 05:39:44;;;;;;;5.03;4.00;;;;;;;15.21;52.27;97530.03;4964103;28;20176;-76
2022/06/02 05:42:18;;;;;;;5.45;4.40;;;;;;;15.15;50.84;97526.66;4963338;28;20292;-75
2022/06/02 05:44:53;;;;;;;4.80;3.60;;;;;;;15.34;51.38;97532.13;4947742;28;20744;-76
2022/06/02 05:47:27;;;;;;;7.00;3.90;;;;;;;15.34;51.03;97531.34;4947421;28;20135;-75
2022/06/02 05:50:12;;;;;;;3.90;3.20;;;;;;;15.42;50.65;97522.94;4963613;28;20187;-75
2022/06/02 05:53:20;;;;;;;3.88;3.42;;;;;;;15.46;51.26;97531.84;4964486;28;20206;-75
2022/06/02 05:55:46;;;;;;;4.07;2.83;;;;;;;15.87;49.70;97518.59;4907765;28;20202;-75
2022/06/02 05:58:33;;;;;;;4.07;2.80;;;;;;;15.82;49.79;97517.84;4953452;28;20447;-75
2022/06/02 06:01:31;;;;;;;3.35;3.05;;;;;;;15.80;49.21;97512.03;4956308;28;20153;-76
2022/06/02 06:04:12;;;;;;;3.63;2.83;;;;;;;16.05;49.21;97511.91;4962549;28;20183;-76
2022/06/02 06:06:42;;;;;;;2.80;2.50;;;;;;;16.31;49.07;97518.88;4954376;28;20362;-77
2022/06/02 06:09:28;;;;;;;2.72;2.38;;;;;;;16.36;48.42;97524.09;4931602;28;20705;-76
2022/06/02 06:12:32;;;;;;;2.70;2.13;;;;;;;16.31;48.09;97524.91;4967081;28;20269;-76
2022/06/02 06:15:22;;;;;;;3.13;2.33;;;;;;;16.50;46.50;97529.53;4960753;28;20195;-76
2022/06/02 06:18:10;;;;;;;2.80;2.30;;;;;;;16.75;46.75;97528.56;4952578;28;20364;-76
2022/06/02 06:20:42;;;;;;;2.15;1.95;;;;;;;17.13;46.78;97526.16;4947353;28;20754;-77
2022/06/02 06:23:29;;;;;;;2.35;1.80;;;;;;;17.35;46.56;97542.25;4947808;28;20297;-77
2022/06/02 06:26:20;;;;;;;2.35;2.15;;;;;;;17.40;45.24;97536.91;4923705;28;20268;-77
2022/06/02 06:28:57;;;;;;;2.97;1.90;;;;;;;17.46;44.85;97529.78;4930056;28;20209;-78
2022/06/02 06:31:31;;;;;;;2.35;1.85;;;;;;;17.59;43.96;97530.94;4963738;28;20764;-77
2022/06/02 06:34:02;;;;;;;3.78;2.38;;;;;;;17.92;43.37;97525.81;4958123;28;20716;-76
2022/06/02 06:36:38;;;;;;;2.03;1.80;;;;;;;18.33;42.63;97541.09;4963243;28;20179;-78
2022/06/02 06:39:03;;;;;;;2.28;2.08;;;;;;;18.40;42.62;97544.16;4963466;28;20604;-76
2022/06/02 06:41:31;;;;;;;3.60;1.88;;;;;;;18.72;42.08;97534.72;4947465;28;20194;-76
2022/06/02 06:44:00;;;;;;;1.90;1.67;;;;;;;18.66;41.49;97538.50;4960927;28;20215;-78
2022/06/02 06:46:41;;;;;;;3.30;1.90;;;;;;;18.94;41.66;97541.28;4965296;28;20691;-77
2022/06/02 06:49:21;;;;;;;1.75;1.48;;;;;;;19.02;40.98;97543.22;4947010;28;20577;-77
2022/06/02 06:51:54;;;;;;;2.15;1.40;;;;;;;19.55;40.06;97537.53;4928800;28;20199;-77
2022/06/02 06:54:43;;;;;;;2.13;1.63;;;;;;;19.59;39.63;97537.72;4947491;28;20710;-77
2022/06/02 06:57:45;;;;;;;2.95;1.33;;;;;;;19.62;39.57;97542.41;4963439;28;20232;-76
2022/06/02 07:00:33;;;;;;;2.67;1.60;;;;;;;19.50;39.26;97540.28;4942848;28;20664;-77
2022/06/02 07:03:11;;;;;;;1.70;1.60;;;;;;;19.64;39.85;97525.19;4932589;28;20594;-76
2022/06/02 07:05:50;;;;;;;1.88;1.45;;;;;;;19.47;38.83;97522.38;4951410;28;20649;-77
2022/06/02 07:08:40;;;;;;;1.48;1.20;;;;;;;19.87;38.91;97527.94;4950656;28;20283;-77
2022/06/02 07:15:04;;;;;;;2.05;1.20;;;;;;;19.88;38.36;97528.72;4882085;28;20266;-77
2022/06/02 07:17:41;;;;;;;1.20;1.10;;;;;;;20.32;38.46;97530.69;4872312;28;20820;-76
2022/06/02 07:20:21;;;;;;;2.13;1.10;;;;;;;20.63;37.86;97526.56;4935002;28;20234;-76
2022/06/02 07:23:05;;;;;;;1.35;1.17;;;;;;;20.97;36.12;97531.28;4967845;28;20164;-78
2022/06/02 07:25:40;;;;;;;1.58;1.13;;;;;;;21.06;36.60;97526.84;4950632;28;20262;-77
2022/06/02 07:28:15;;;;;;;1.25;1.15;;;;;;;20.82;36.24;97515.78;4951195;28;20707;-77
2022/06/02 07:31:20;;;;;;;1.08;1.08;;;;;;;20.84;36.53;97525.00;4934590;28;20647;-77
2022/06/02 07:33:53;;;;;;;1.70;1.00;;;;;;;20.72;36.18;97525.56;4962922;28;20292;-77
2022/06/02 07:36:54;;;;;;;2.72;1.38;;;;;;;20.73;36.16;97526.31;4951234;28;20163;-76
2022/06/02 07:39:31;;;;;;;1.30;0.90;;;;;;;21.12;36.47;97530.13;4963972;28;20260;-76
2022/06/02 07:42:13;;;;;;;1.15;1.02;;;;;;;20.85;35.67;97533.72;4967744;28;20332;-77
2022/06/02 07:44:51;;;;;;;1.75;1.08;;;;;;;21.03;36.27;97516.84;4967344;28;20206;-77
2022/06/02 07:47:44;;;;;;;1.10;0.90;;;;;;;21.40;36.28;97530.72;4968840;28;20172;-78
2022/06/02 07:50:20;;;;;;;1.30;1.08;;;;;;;21.97;36.13;97529.16;4966576;28;20272;-77
2022/06/02 07:53:13;;;;;;;1.88;0.95;;;;;;;21.69;34.51;97534.72;4966574;28;20656;-76
2022/06/02 07:56:09;;;;;;;3.38;1.23;;;;;;;21.44;35.38;97529.03;4967142;28;20612;-77
2022/06/02 07:58:55;;;;;;;0.82;0.63;;;;;;;21.75;35.93;97532.75;4963353;28;20680;-77
2022/06/02 08:01:20;;;;;;;2.05;0.80;;;;;;;22.41;35.51;97533.47;4950133;28;20676;-77
2022/06/02 08:04:01;;;;;;;1.58;1.00;;;;;;;21.94;33.96;97540.41;4969193;28;20203;-77
2022/06/02 08:06:40;;;;;;;2.28;0.88;;;;;;;21.82;34.12;97541.78;4968597;28;20748;-78
2022/06/02 08:09:15;;;;;;;0.90;0.90;;;;;;;22.02;34.75;97537.78;4966209;28;20309;-77
2022/06/02 08:12:28;;;;;;;1.00;1.00;;;;;;;21.93;33.97;97541.50;4950021;28;20640;-78
2022/06/02 08:14:59;;;;;;;1.42;0.80;;;;;;;22.19;34.78;97537.03;4917184;28;20804;-77
2022/06/02 08:17:36;;;;;;;1.00;0.68;;;;;;;22.03;33.05;97546.50;4969253;28;20280;-76
2022/06/02 08:20:07;;;;;;;0.85;0.77;;;;;;;22.25;33.69;97541.06;4949707;28;20202;-76
2022/06/02 08:22:50;;;;;;;1.58;0.68;;;;;;;21.80;33.06;97540.56;4967854;28;20305;-77
2022/06/02 08:25:24;;;;;;;0.98;0.88;;;;;;;21.93;33.63;97544.16;4948821;28;20198;-76
2022/06/02 08:28:11;;;;;;;0.80;0.60;;;;;;;22.18;33.87;97543.41;4949959;28;20252;-75
2022/06/02 08:30:52;;;;;;;1.23;0.77;;;;;;;22.16;33.56;97542.94;4963882;28;20629;-77
2022/06/02 08:33:39;;;;;;;1.67;0.90;;;;;;;22.49;32.44;97545.16;4965908;28;20273;-77
2022/06/02 08:36:07;;;;;;;1.15;0.60;;;;;;;22.98;32.27;97551.03;4968982;28;20213;-76
2022/06/02 08:39:05;;;;;;;1.50;0.60;;;;;;;23.16;32.24;97548.34;4965673;28;20199;-77
2022/06/02 08:41:48;;;;;;;1.15;0.60;;;;;;;22.60;31.65;97545.59;4927491;28;20216;-76
2022/06/02 08:44:29;;;;;;;1.10;0.80;;;;;;;22.30;31.92;97544.69;4968267;28;20242;-76
2022/06/02 08:47:31;;;;;;;0.60;0.60;;;;;;;22.76;32.30;97548.56;4969106;28;20176;-78
2022/06/02 08:50:48;;;;;;;1.02;0.60;;;;;;;23.03;32.22;97542.13;4964817;28;20338;-77
2022/06/02 08:53:52;;;;;;;0.80;0.50;;;;;;;23.04;31.19;97543.66;4943786;28;20223;-77
2022/06/02 08:56:48;;;;;;;1.98;0.95;;;;;;;23.28;29.99;97553.00;4967258;28;20709;-77
2022/06/02 08:59:35;;;;;;;2.55;0.80;;;;;;;22.85;31.75;97545.91;4965073;28;20683;-76
2022/06/02 09:02:24;;;;;;;3.25;0.75;;;;;;;22.56;32.33;97545.47;4965429;28;20617;-75
2022/06/02 09:05:14;;;;;;;1.50;0.70;;;;;;;23.00;32.60;97543.53;4965695;28;20199;-77
2022/06/02 09:08:04;;;;;;;1.20;0.90;;;;;;;23.18;32.32;97548.81;4968434;28;20672;-77
2022/06/02 09:10:43;;;;;;;1.13;0.60;;;;;;;23.80;33.13;97538.69;4964679;28;20265;-76
2022/06/02 09:13:53;;;;;;;1.08;0.80;;;;;;;23.71;31.10;97533.41;4965682;28;20202;-77
2022/06/02 09:16:37;;;;;;;1.77;0.80;;;;;;;23.95;31.30;97545.38;4956774;28;20187;-77
2022/06/02 09:19:17;;;;;;;1.33;0.70;;;;;;;24.25;31.54;97546.88;4932981;28;20725;-77
2022/06/02 09:22:10;;;;;;;0.90;0.70;;;;;;;24.15;31.18;97541.16;4975504;28;20190;-78
2022/06/02 09:24:50;;;;;;;1.42;0.70;;;;;;;24.23;29.62;97538.44;4966455;28;20277;-77
2022/06/02 09:27:31;;;;;;;0.93;0.77;;;;;;;24.12;31.70;97542.59;4963304;28;20265;-77
2022/06/02 09:30:05;;;;;;;2.50;0.75;;;;;;;24.29;31.71;97539.00;4963586;28;20288;-77
2022/06/02 09:32:50;;;;;;;0.65;0.65;;;;;;;24.21;31.66;97539.84;4947572;28;20164;-78
2022/06/02 09:35:24;;;;;;;1.92;1.00;;;;;;;24.57;29.83;97541.94;4961676;28;20211;-77
2022/06/02 09:38:09;;;;;;;1.77;0.70;;;;;;;24.63;31.32;97537.97;4969934;28;20286;-76
2022/06/02 09:40:45;;;;;;;2.28;0.95;;;;;;;25.07;30.09;97537.53;4963921;28;20267;-77
2022/06/02 09:43:18;;;;;;;1.13;0.80;;;;;;;24.90;30.29;97537.72;4964443;28;20249;-76
2022/06/02 09:46:03;;;;;;;0.95;0.80;;;;;;;24.52;29.83;97533.34;4964958;28;20174;-76
2022/06/02 09:49:04;;;;;;;2.05;0.77;;;;;;;24.77;31.95;97535.00;4966054;28;20299;-77
2022/06/02 09:51:45;;;;;;;1.42;0.80;;;;;;;24.54;30.41;97533.78;4964435;28;20179;-76
2022/06/02 09:54:39;;;;;;;0.90;0.82;;;;;;;25.03;30.00;97536.63;4948738;28;20648;-76
2022/06/02 10:00:42;;;;;;;1.48;0.80;;;;;;;25.03;31.47;97526.75;4958495;28;20679;-76
2022/06/02 10:03:45;;;;;;;3.20;1.10;;;;;;;24.59;31.03;97536.28;4944707;28;20199;-77
2022/06/02 10:06:23;;;;;;;2.20;1.00;;;;;;;25.20;29.87;97531.09;4964155;28;20346;-77
2022/06/02 10:09:08;;;;;;;0.90;0.90;;;;;;;25.07;29.92;97537.53;4962633;28;20303;-75
2022/06/02 10:11:36;;;;;;;;;;;;;;;25.34;30.29;97540.69;4967003;28;20276;-77
2022/06/02 10:14:04;;;;;;;1.27;0.77;;;;;;;26.13;29.73;97538.56;4943711;28;20441;-76
2022/06/02 10:16:53;;;;;;;1.45;0.98;;;;;;;26.45;28.43;97541.34;4965667;28;20165;-77
2022/06/02 10:19:45;;;;;;;1.08;0.77;;;;;;;26.47;28.78;97538.34;4963540;28;20390;-76
2022/06/02 10:22:39;;;;;;;1.20;1.10;;;;;;;26.16;29.22;97548.53;4930323;28;20651;-77
2022/06/02 10:25:28;;;;;;;1.27;0.90;;;;;;;26.13;30.42;97538.56;4952943;28;20210;-76
2022/06/02 10:28:07;;;;;;;2.33;1.20;;;;;;;25.54;29.19;97547.06;4925905;28;20550;-76
2022/06/02 10:30:36;;;;;;;2.38;1.23;;;;;;;24.96;30.09;97544.41;4943487;28;20206;-76
2022/06/02 10:33:23;;;;;;;1.00;0.82;;;;;;;25.58;29.44;97542.59;4963360;28;20255;-76
2022/06/02 10:36:18;;;;;;;1.67;1.27;;;;;;;25.73;29.34;97541.91;4964784;28;20277;-76
2022/06/02 10:39:18;;;;;;;1.30;1.17;;;;;;;25.78;29.66;97531.03;4965074;28;20233;-76
2022/06/02 10:42:29;;;;;;;1.58;1.30;;;;;;;25.70;29.43;97533.81;4958573;28;20267;-77
2022/06/02 10:45:00;;;;;;;2.75;1.00;;;;;;;25.84;29.88;97536.94;4965350;28;20187;-77
2022/06/02 10:47:51;;;;;;;0.85;0.80;;;;;;;26.10;27.92;97533.13;4966621;28;20625;-77
2022/06/02 10:50:36;;;;;;;1.90;0.98;;;;;;;26.48;28.62;97537.22;4946659;28;20641;-77
2022/06/02 10:53:29;;;;;;;1.20;1.10;;;;;;;26.32;28.28;97534.50;4958465;28;20697;-77
2022/06/02 10:55:55;;;;;;;2.65;1.00;;;;;;;26.48;29.31;97534.56;4965426;28;20190;-76
2022/06/02 10:58:39;;;;;;;1.40;1.30;;;;;;;26.41;29.55;97537.00;4963195;28;20218;-77
2022/06/02 11:01:16;;;;;;;2.45;0.93;;;;;;;26.67;27.42;97540.06;4963161;28;20242;-77
2022/06/02 11:04:21;;;;;;;1.75;0.90;;;;;;;26.69;26.44;97532.47;4960625;28;20168;-77
2022/06/02 11:07:08;;;;;;;1.63;1.00;;;;;;;26.80;27.57;97543.47;4965636;28;20277;-77
2022/06/02 11:09:57;;;;;;;1.17;1.08;;;;;;;26.49;26.83;97538.78;4961926;28;20206;-77
2022/06/02 11:12:44;;;;;;;1.13;1.02;;;;;;;26.58;27.56;97535.94;4942282;28;20288;-77
2022/06/02 11:15:31;;;;;;;1.40;1.30;;;;;;;26.44;28.11;97534.47;4964626;28;20341;-77
2022/06/02 11:18:21;;;;;;;1.27;1.10;;;;;;;26.32;28.92;97529.94;4965089;28;20160;-77
2022/06/02 11:21:20;;;;;;;1.60;1.20;;;;;;;26.23;27.90;97523.19;4962390;28;20187;-76
2022/06/02 11:24:02;;;;;;;1.00;0.90;;;;;;;26.40;30.01;97514.13;4965664;28;20651;-77
2022/06/02 11:26:28;;;;;;;1.10;0.88;;;;;;;26.33;28.39;97523.47;4961509;28;20356;-76
2022/06/02 11:29:12;;;;;;;0.95;0.95;;;;;;;25.79;28.71;97523.81;4962049;28;20359;-76
2022/06/02 11:32:00;;;;;;;1.73;1.10;;;;;;;25.48;28.76;97519.84;4970428;28;20159;-77
2022/06/02 11:34:46;;;;;;;1.75;0.95;;;;;;;25.22;29.62;97525.44;4946494;28;20206;-76
2022/06/02 11:37:31;;;;;;;2.47;1.38;;;;;;;24.59;29.02;97523.75;4962190;28;20289;-76
2022/06/02 11:40:18;;;;;;;1.45;1.15;;;;;;;24.75;29.44;97521.25;4968126;28;20731;-76
2022/06/02 11:42:48;;;;;;;1.10;1.00;;;;;;;24.90;29.89;97511.88;4969749;28;20279;-75
2022/06/02 11:45:20;;;;;;;2.17;1.20;;;;;;;24.34;29.86;97508.78;4947491;28;20700;-76
2022/06/02 11:47:57;;;;;;;1.67;1.20;;;;;;;23.99;30.07;97501.84;4968666;28;20194;-76
2022/06/02 11:50:53;;;;;;;1.20;1.10;;;;;;;24.03;30.12;97505.41;4967625;28;20624;-76
2022/06/02 11:53:51;;;;;;;1.48;0.98;;;;;;;24.15;30.76;97498.59;4960377;28;20794;-75
2022/06/02 11:56:46;;;;;;;1.60;1.05;;;;;;;23.92;31.46;97506.88;4933354;28;20210;-76
2022/06/02 11:59:33;;;;;;;1.40;1.20;;;;;;;23.94;31.06;97499.38;4923986;28;20236;-76
2022/06/02 12:02:12;;;;;;;1.80;1.48;;;;;;;23.63;31.55;97483.72;4966925;28;20230;-76
2022/06/02 12:05:11;;;;;;;2.10;1.20;;;;;;;24.01;32.41;97486.34;4967821;28;20696;-77
2022/06/02 12:08:14;;;;;;;1.85;0.88;;;;;;;24.15;32.19;97479.97;4961717;28;20322;-76
2022/06/02 12:10:54;;;;;;;1.20;0.80;;;;;;;23.97;31.35;97487.31;4965063;28;20157;-77
2022/06/02 12:13:52;;;;;;;2.15;0.80;;;;;;;24.33;30.38;97485.91;4949672;28;20193;-77
2022/06/02 12:16:26;;;;;;;2.08;0.90;;;;;;;24.28;31.82;97481.56;4965725;28;20211;-77
2022/06/02 12:19:08;;;;;;;1.25;1.10;;;;;;;24.30;31.78;97479.38;4965238;28;20276;-75
2022/06/02 12:21:49;;;;;;;1.98;0.98;;;;;;;24.30;31.89;97474.81;4965320;28;20644;-76
2022/06/02 12:24:36;;;;;;;2.15;1.10;;;;;;;23.74;33.00;97480.38;4967570;28;20207;-76
2022/06/02 12:27:30;;;;;;;2.65;1.23;;;;;;;23.79;32.36;97482.06;4966791;28;20191;-76
2022/06/02 12:30:33;;;;;;;1.40;1.20;;;;;;;23.79;32.38;97478.66;4962195;28;20276;-76
2022/06/02 12:33:29;;;;;;;1.23;1.00;;;;;;;23.71;33.25;97475.69;4948479;28;20202;-76
2022/06/02 12:36:36;;;;;;;2.30;0.93;;;;;;;23.66;33.40;97473.22;4968274;28;20232;-76
2022/06/02 12:39:18;;;;;;;2.22;1.20;;;;;;;23.62;32.41;97471.56;4944491;28;20167;-75
2022/06/02 12:42:23;;;;;;;1.42;1.30;;;;;;;24.06;32.05;97472.03;4947446;28;20190;-77
2022/06/02 12:45:00;;;;;;;1.55;1.05;;;;;;;24.02;32.20;97482.56;4946713;28;20211;-76
2022/06/02 12:48:03;;;;;;;2.47;1.30;;;;;;;23.87;32.44;97488.44;4965403;28;20175;-76
2022/06/02 12:50:47;;;;;;;3.85;1.50;;;;;;;24.07;31.89;97486.91;4962961;28;20164;-76
2022/06/02 12:53:22;;;;;;;1.42;1.33;;;;;;;24.16;31.71;97484.19;4965685;28;20534;-77
2022/06/02 12:55:47;;;;;;;;;;;;;;;23.87;32.63;97483.13;4949345;28;20561;-77
2022/06/02 12:58:31;;;;;;;2.15;0.80;;;;;;;24.19;32.24;97484.31;4965451;28;20153;-77
2022/06/02 13:01:06;;;;;;;1.52;1.10;;;;;;;24.01;30.64;97478.34;4957786;28;20190;-78
2022/06/02 13:03:53;;;;;;;1.13;0.90;;;;;;;24.28;31.41;97485.03;4947560;28;20199;-76